Time;durP1;ratioP1;P1;durP2;ratioP2;P2;SDS_P1;SDS_P2;PMS_P1;PMS_P2;Temp;Humidity;BMP_temperature;BMP_pressure;BME280_temperature;BME280_humidity;BME280_pressure;Samples;Min_cycle;Max_cycle;Signal;HPM_P1;HPM_P2
2021/10/20 00:00:30;;;;;;;12.40;4.80;;;;;;;5.33;60.06;100338.24;27191;1217;3054133;-63
2021/10/20 00:02:59;;;;;;;11.80;6.00;;;;;;;5.27;60.41;100342.56;27191;1217;3026117;-67
2021/10/20 00:05:28;;;;;;;13.40;5.60;;;;;;;5.17;61.04;100343.32;27219;1218;3051718;-64
2021/10/20 00:07:57;;;;;;;18.60;6.20;;;;;;;5.10;60.94;100340.52;27237;1218;3027263;-65
2021/10/20 00:10:26;;;;;;;16.20;6.30;;;;;;;5.11;60.82;100336.34;27183;1217;3069996;-67
2021/10/20 00:12:55;;;;;;;12.20;5.30;;;;;;;5.14;60.44;100333.67;27201;1219;3026501;-66
2021/10/20 00:15:24;;;;;;;12.40;5.60;;;;;;;5.21;60.16;100331.91;27202;1218;3052902;-64
2021/10/20 00:17:54;;;;;;;15.10;6.30;;;;;;;5.21;60.39;100336.64;27188;1217;3026960;-68
2021/10/20 00:20:26;;;;;;;12.60;5.20;;;;;;;5.22;60.15;100341.13;27202;1218;3025995;-68
2021/10/20 00:22:55;;;;;;;14.60;5.80;;;;;;;5.24;60.00;100344.03;27186;1219;3026663;-63
2021/10/20 00:25:24;;;;;;;18.20;5.70;;;;;;;5.22;60.06;100341.13;27207;1218;3028119;-63
2021/10/20 00:27:53;;;;;;;11.10;4.80;;;;;;;5.24;59.85;100344.38;27208;1219;3048328;-65
2021/10/20 00:30:26;;;;;;;15.10;6.80;;;;;;;5.27;59.97;100346.38;27260;1217;3054087;-66
2021/10/20 00:32:55;;;;;;;18.10;7.40;;;;;;;5.29;59.97;100341.45;27222;1219;3026105;-62
2021/10/20 00:35:24;;;;;;;14.10;6.60;;;;;;;5.31;60.07;100342.98;27203;1217;3048528;-63
2021/10/20 00:37:54;;;;;;;18.20;7.20;;;;;;;5.28;60.39;100347.59;27225;1218;3026469;-70
2021/10/20 00:40:22;;;;;;;18.10;7.10;;;;;;;5.22;60.67;100346.50;27197;1219;3069246;-64
2021/10/20 00:42:52;;;;;;;19.20;8.50;;;;;;;5.23;60.61;100346.67;27212;1218;3027012;-72
2021/10/20 00:45:20;;;;;;;21.60;9.30;;;;;;;5.22;60.73;100349.98;27225;1219;3052756;-65
2021/10/20 00:47:50;;;;;;;18.40;8.10;;;;;;;5.13;60.75;100353.83;27193;1219;3026019;-65
2021/10/20 00:50:19;;;;;;;25.60;10.70;;;;;;;5.13;60.96;100355.05;27206;1217;3025890;-65
2021/10/20 00:52:48;;;;;;;27.50;12.20;;;;;;;5.21;60.38;100352.95;27226;1217;3053240;-64
2021/10/20 00:55:17;;;;;;;26.90;12.70;;;;;;;5.12;60.54;100345.20;27196;1217;3026356;-66
2021/10/20 00:57:54;;;;;;;27.20;11.90;;;;;;;5.01;60.79;100357.58;27213;1219;3054908;-67
2021/10/20 01:00:23;;;;;;;31.90;13.30;;;;;;;4.98;60.81;100356.80;27210;1217;3027656;-68
2021/10/20 01:02:53;;;;;;;29.20;12.90;;;;;;;5.02;60.41;100354.42;27202;1219;3048785;-65
2021/10/20 01:05:23;;;;;;;26.90;13.10;;;;;;;5.02;60.61;100357.73;27253;1218;3026057;-65
2021/10/20 01:07:53;;;;;;;26.90;11.80;;;;;;;5.04;60.29;100358.04;27213;1219;3026799;-65
2021/10/20 01:10:24;;;;;;;24.90;10.50;;;;;;;5.04;60.37;100363.25;27232;1218;3025888;-68
2021/10/20 01:12:53;;;;;;;18.10;8.00;;;;;;;5.05;60.28;100363.23;27223;1219;3025833;-66
2021/10/20 01:15:24;;;;;;;18.90;8.60;;;;;;;5.11;60.02;100367.08;27222;1218;3053059;-66
2021/10/20 01:17:53;;;;;;;22.50;8.00;;;;;;;5.16;59.80;100363.15;27212;1219;3026014;-67
2021/10/20 01:20:25;;;;;;;17.00;7.50;;;;;;;5.15;59.87;100362.12;27249;1209;3025853;-66
2021/10/20 01:22:54;;;;;;;16.90;6.50;;;;;;;5.19;59.57;100366.02;27220;1219;3050005;-67
2021/10/20 01:25:23;;;;;;;13.30;6.30;;;;;;;5.23;59.57;100369.05;27268;1218;3028293;-66
2021/10/20 01:27:52;;;;;;;13.90;5.40;;;;;;;5.27;59.74;100374.01;27238;1219;3053254;-68
2021/10/20 01:30:21;;;;;;;19.60;7.40;;;;;;;5.27;60.05;100375.55;27202;1219;3027739;-66
2021/10/20 01:32:50;;;;;;;16.30;6.40;;;;;;;5.27;60.58;100378.54;27234;1218;3048618;-68
2021/10/20 01:35:19;;;;;;;18.60;6.90;;;;;;;5.30;60.57;100384.36;27197;1219;3026944;-68
2021/10/20 01:37:48;;;;;;;20.10;6.60;;;;;;;5.25;60.98;100391.42;27214;1219;3056606;-68
2021/10/20 01:40:19;;;;;;;17.00;6.50;;;;;;;5.23;61.29;100396.16;27171;1219;3025969;-67
2021/10/20 01:42:48;;;;;;;14.40;6.40;;;;;;;5.22;61.53;100401.05;27213;1219;3027740;-62
2021/10/20 01:45:17;;;;;;;19.70;7.10;;;;;;;5.21;61.83;100402.98;27198;1217;3058239;-68
2021/10/20 01:47:47;;;;;;;19.90;7.50;;;;;;;5.17;62.03;100402.54;27211;1219;3026497;-69
2021/10/20 01:50:16;;;;;;;19.70;6.40;;;;;;;5.18;61.92;100411.04;27201;1217;3026079;-68
2021/10/20 01:52:45;;;;;;;13.90;6.40;;;;;;;5.15;62.21;100413.00;27181;1218;3058366;-66
2021/10/20 01:55:15;;;;;;;16.20;7.10;;;;;;;5.10;62.35;100411.92;27226;1219;3026498;-67
2021/10/20 01:57:44;;;;;;;18.20;7.00;;;;;;;5.06;62.63;100414.77;27217;1218;3050964;-66
2021/10/20 02:00:14;;;;;;;18.10;6.70;;;;;;;5.03;62.78;100412.94;27248;1219;3026478;-66
2021/10/20 02:02:44;;;;;;;13.20;6.30;;;;;;;5.01;62.93;100406.73;27216;1219;3028120;-68
2021/10/20 02:05:13;;;;;;;18.20;6.50;;;;;;;4.95;63.14;100411.56;27211;1209;3025952;-65
2021/10/20 02:07:42;;;;;;;17.00;7.30;;;;;;;4.94;63.16;100408.63;27263;1218;3055793;-67
2021/10/20 02:10:13;;;;;;;16.20;6.60;;;;;;;4.87;63.42;100405.48;27218;1219;3025769;-70
2021/10/20 02:12:42;;;;;;;19.30;7.30;;;;;;;4.88;63.22;100402.33;27211;1219;3052066;-67
2021/10/20 02:15:11;;;;;;;21.20;7.30;;;;;;;4.83;63.42;100413.21;27210;1210;3026071;-63
2021/10/20 02:17:40;;;;;;;22.10;6.30;;;;;;;4.79;63.69;100411.73;27239;1219;3051314;-65
2021/10/20 02:20:11;;;;;;;26.00;7.00;;;;;;;4.82;63.48;100416.19;27202;1217;3026280;-64
2021/10/20 02:22:41;;;;;;;19.20;7.50;;;;;;;4.79;63.34;100413.80;27232;1219;3047639;-66
2021/10/20 02:25:10;;;;;;;20.30;7.50;;;;;;;4.74;63.60;100416.01;27221;1217;3025974;-68
2021/10/20 02:27:39;;;;;;;17.80;7.20;;;;;;;4.64;63.75;100420.55;27261;1219;3026400;-64
2021/10/20 02:30:09;;;;;;;22.80;8.20;;;;;;;4.66;63.65;100422.25;27413;1219;3048524;-62
2021/10/20 02:32:38;;;;;;;18.90;8.10;;;;;;;4.62;63.81;100424.59;27422;1219;3026248;-69
2021/10/20 02:35:08;;;;;;;30.30;9.70;;;;;;;4.55;64.10;100428.38;27221;1218;3026268;-68
2021/10/20 02:37:37;;;;;;;25.30;9.10;;;;;;;4.55;64.01;100430.63;27275;1219;3051582;-66
2021/10/20 02:40:08;;;;;;;22.70;7.50;;;;;;;4.43;64.25;100434.69;27204;1219;3026462;-65
2021/10/20 02:42:37;;;;;;;27.70;9.10;;;;;;;4.37;64.31;100435.67;27264;1217;3070612;-67
2021/10/20 02:45:08;;;;;;;30.60;9.90;;;;;;;4.31;64.60;100435.43;27218;1219;3025935;-66
2021/10/20 02:47:37;;;;;;;31.30;10.70;;;;;;;4.25;64.73;100434.36;27249;1218;3051460;-63
2021/10/20 02:50:07;;;;;;;30.10;11.30;;;;;;;4.19;64.74;100434.29;27190;1219;3028186;-67
2021/10/20 02:52:37;;;;;;;38.50;12.30;;;;;;;4.22;64.40;100429.36;27236;1218;3025858;-64
2021/10/20 02:55:06;;;;;;;41.80;13.70;;;;;;;4.11;64.68;100428.88;27202;1219;3026215;-65
2021/10/20 02:57:36;;;;;;;32.60;11.80;;;;;;;4.09;64.63;100432.40;27166;1218;3069427;-70
2021/10/20 03:00:05;;;;;;;37.30;12.60;;;;;;;4.07;64.93;100432.95;27213;1218;3026013;-64
2021/10/20 03:02:34;;;;;;;38.30;12.70;;;;;;;4.07;64.83;100428.43;27187;1219;3050141;-62
2021/10/20 03:05:04;;;;;;;33.90;12.40;;;;;;;4.00;65.29;100429.42;27205;1218;3026550;-68
2021/10/20 03:07:32;;;;;;;31.00;10.30;;;;;;;4.01;65.41;100433.05;27207;1220;3054629;-67
2021/10/20 03:10:05;;;;;;;29.20;11.80;;;;;;;3.93;65.62;100423.66;27174;1219;3026352;-67
2021/10/20 03:12:34;;;;;;;32.20;11.40;;;;;;;3.91;65.91;100424.91;27200;1218;3028472;-66
2021/10/20 03:15:04;;;;;;;28.70;9.50;;;;;;;3.88;65.89;100420.98;27211;1219;3026286;-67
2021/10/20 03:17:33;;;;;;;34.10;10.60;;;;;;;3.86;66.07;100424.82;27200;1217;3052872;-64
2021/10/20 03:20:08;;;;;;;25.60;9.60;;;;;;;3.81;66.45;100430.98;27194;1218;3028160;-68
2021/10/20 03:22:39;;;;;;;23.90;9.60;;;;;;;3.77;66.32;100426.20;27240;1219;3055096;-64
2021/10/20 03:25:09;;;;;;;24.00;9.50;;;;;;;3.76;66.09;100432.98;27234;1218;3025643;-69
2021/10/20 03:27:45;;;;;;;34.50;12.10;;;;;;;3.74;66.31;100435.60;27174;1219;3027194;-67
2021/10/20 03:30:15;;;;;;;43.30;13.80;;;;;;;3.70;66.27;100432.90;27225;1218;3049197;-67
2021/10/20 03:32:44;;;;;;;37.80;12.50;;;;;;;3.62;66.38;100435.80;27218;1218;3028215;-66
2021/10/20 03:35:16;;;;;;;35.60;10.90;;;;;;;3.65;66.40;100431.25;27219;1218;3028082;-66
2021/10/20 03:37:45;;;;;;;35.30;12.40;;;;;;;3.61;66.79;100437.73;27201;1218;3047690;-64
2021/10/20 03:40:15;;;;;;;30.80;10.80;;;;;;;3.57;66.96;100441.25;27266;1218;3026392;-63
2021/10/20 03:42:45;;;;;;;19.00;7.30;;;;;;;3.54;67.21;100445.29;27272;1218;3068203;-65
2021/10/20 03:45:15;;;;;;;21.60;9.00;;;;;;;3.61;66.57;100450.55;27190;1218;3026701;-66
2021/10/20 03:47:44;;;;;;;18.80;7.50;;;;;;;3.63;66.40;100448.09;27238;1219;3049549;-65
2021/10/20 03:50:13;;;;;;;22.20;7.70;;;;;;;3.66;65.93;100451.16;27168;1219;3028492;-66
2021/10/20 03:52:42;;;;;;;27.20;10.10;;;;;;;3.66;65.63;100448.90;27212;1219;3054893;-61
2021/10/20 03:55:11;;;;;;;32.80;10.40;;;;;;;3.59;66.04;100450.75;27198;1219;3027349;-68
2021/10/20 03:57:40;;;;;;;39.60;13.00;;;;;;;3.61;65.93;100452.11;27189;1218;3049075;-63
2021/10/20 04:00:11;;;;;;;43.10;12.60;;;;;;;3.56;65.78;100460.52;27220;1219;3029814;-65
2021/10/20 04:02:45;;;;;;;29.30;10.30;;;;;;;3.54;65.89;100465.04;27202;1219;3053749;-65
2021/10/20 04:05:16;;;;;;;32.70;11.20;;;;;;;3.50;66.13;100472.03;27211;1218;3028842;-63
2021/10/20 04:07:46;;;;;;;37.70;13.30;;;;;;;3.49;65.98;100476.19;27210;1219;3026090;-72
2021/10/20 04:10:19;;;;;;;31.10;11.10;;;;;;;3.42;66.37;100479.08;27222;1218;3026348;-62
2021/10/20 04:12:49;;;;;;;27.10;10.00;;;;;;;3.39;66.47;100483.79;27206;1217;3026009;-64
2021/10/20 04:15:19;;;;;;;36.30;11.80;;;;;;;3.35;66.76;100488.88;27200;1209;3026428;-67
2021/10/20 04:17:48;;;;;;;29.10;9.80;;;;;;;3.37;66.31;100490.77;27241;1218;3028278;-63
2021/10/20 04:20:18;;;;;;;30.10;10.70;;;;;;;3.37;66.24;100488.69;27216;1218;3026295;-69
2021/10/20 04:22:50;;;;;;;29.40;10.90;;;;;;;3.35;66.15;100488.19;27210;1217;3057247;-65
2021/10/20 04:25:19;;;;;;;25.80;9.60;;;;;;;3.40;65.70;100488.98;27231;1218;3026596;-67
2021/10/20 04:27:49;;;;;;;30.80;11.10;;;;;;;3.42;65.40;100486.88;27266;1219;3026068;-64
2021/10/20 04:30:19;;;;;;;39.50;12.50;;;;;;;3.46;64.90;100489.25;27205;1219;3054647;-65
2021/10/20 04:32:48;;;;;;;32.90;10.90;;;;;;;3.46;64.62;100490.09;27226;1217;3028274;-64
2021/10/20 04:35:22;;;;;;;29.50;10.20;;;;;;;3.44;64.75;100492.20;27207;1218;3026346;-68
2021/10/20 04:37:51;;;;;;;26.60;9.20;;;;;;;3.48;64.55;100490.08;27233;1219;3056486;-63
2021/10/20 04:40:20;;;;;;;24.20;8.30;;;;;;;3.50;64.31;100489.35;27183;1217;3025999;-68
2021/10/20 04:42:50;;;;;;;26.70;8.50;;;;;;;3.53;64.06;100501.08;27215;1219;3052938;-68
2021/10/20 04:45:19;;;;;;;27.70;9.20;;;;;;;3.51;64.19;100503.88;27206;1209;3025773;-67
2021/10/20 04:47:49;;;;;;;28.20;9.50;;;;;;;3.51;64.46;100507.70;27189;1217;3026341;-65
2021/10/20 04:50:19;;;;;;;22.10;7.90;;;;;;;3.52;64.26;100512.02;27175;1203;3026077;-66
2021/10/20 04:52:48;;;;;;;31.10;8.20;;;;;;;3.57;64.05;100511.42;27173;1219;3058684;-64
2021/10/20 04:55:17;;;;;;;24.00;7.90;;;;;;;3.60;63.88;100513.45;27186;1218;3026076;-65
2021/10/20 04:57:51;;;;;;;22.70;7.50;;;;;;;3.62;63.80;100518.96;27225;1219;3053739;-65
2021/10/20 05:00:21;;;;;;;17.70;7.20;;;;;;;3.58;64.31;100526.14;27256;1219;3057567;-67
2021/10/20 05:02:51;;;;;;;24.30;7.90;;;;;;;3.52;64.33;100533.50;27218;1218;3025999;-63
2021/10/20 05:05:21;;;;;;;26.40;9.10;;;;;;;3.47;65.16;100542.05;27211;1218;3026762;-63
2021/10/20 05:07:55;;;;;;;40.60;11.50;;;;;;;3.53;64.97;100544.06;27229;1219;3026561;-64
2021/10/20 05:10:26;;;;;;;26.20;8.40;;;;;;;3.50;65.35;100553.09;27214;1217;3027302;-67
2021/10/20 05:12:56;;;;;;;27.30;10.10;;;;;;;3.55;65.02;100554.59;27254;1217;3026980;-67
2021/10/20 05:15:25;;;;;;;38.50;13.30;;;;;;;3.57;64.96;100558.38;27285;1217;3028681;-65
2021/10/20 05:17:54;;;;;;;39.30;13.20;;;;;;;3.63;64.71;100550.84;27195;1209;3028049;-64
2021/10/20 05:20:23;;;;;;;35.30;13.10;;;;;;;3.70;64.29;100553.85;27186;1218;3050624;-64
2021/10/20 05:22:52;;;;;;;28.90;10.70;;;;;;;3.73;64.32;100555.55;27205;1219;3029184;-66
2021/10/20 05:25:21;;;;;;;32.20;10.60;;;;;;;3.76;64.11;100557.06;27243;1218;3067227;-68
2021/10/20 05:27:51;;;;;;;34.20;10.70;;;;;;;3.87;63.95;100563.13;27192;1219;3026545;-65
2021/10/20 05:30:20;;;;;;;33.50;10.90;;;;;;;3.92;63.42;100563.55;27197;1217;3053994;-64
2021/10/20 05:32:49;;;;;;;29.80;9.70;;;;;;;3.96;62.96;100561.42;27226;1217;3029207;-68
2021/10/20 05:35:18;;;;;;;26.40;9.50;;;;;;;4.04;62.66;100568.23;27178;1219;3054834;-67
2021/10/20 05:37:48;;;;;;;25.80;8.30;;;;;;;4.12;62.24;100570.88;27200;1215;3026972;-64
2021/10/20 05:40:18;;;;;;;25.30;9.10;;;;;;;4.25;61.63;100566.50;27213;1217;3026491;-66
2021/10/20 05:42:47;;;;;;;25.40;10.40;;;;;;;4.38;61.07;100563.68;27211;1218;3027692;-67
2021/10/20 05:45:16;;;;;;;23.70;8.80;;;;;;;4.54;60.18;100567.39;27200;1218;3025986;-64
2021/10/20 05:47:45;;;;;;;25.90;9.90;;;;;;;4.64;59.50;100574.15;27192;1218;3067925;-67
2021/10/20 05:50:15;;;;;;;28.40;8.60;;;;;;;4.75;59.03;100575.16;27206;1217;3025870;-68
2021/10/20 05:52:44;;;;;;;19.30;8.50;;;;;;;4.82;58.41;100577.27;27213;1209;3025865;-67
2021/10/20 05:55:13;;;;;;;19.10;7.70;;;;;;;4.95;58.10;100579.11;27242;1210;3026189;-65
2021/10/20 05:57:45;;;;;;;18.70;7.80;;;;;;;5.08;54.64;100575.90;27233;1217;3051024;-68
2021/10/20 06:00:14;;;;;;;25.20;8.70;;;;;;;5.22;56.22;100571.80;27209;1218;3025861;-67
2021/10/20 06:02:43;;;;;;;20.80;7.80;;;;;;;5.30;55.11;100579.45;27212;1218;3068856;-63
2021/10/20 06:05:12;;;;;;;18.80;6.90;;;;;;;5.37;53.89;100590.95;27257;1219;3028172;-66
2021/10/20 06:07:42;;;;;;;25.50;7.50;;;;;;;5.46;53.86;100594.92;27209;1217;3053132;-69
2021/10/20 06:10:12;;;;;;;13.90;5.90;;;;;;;5.54;53.38;100599.61;27200;1218;3025972;-66
2021/10/20 06:12:41;;;;;;;15.20;6.20;;;;;;;5.65;52.35;100600.07;27183;1218;3026535;-64
2021/10/20 06:15:21;;;;;;;18.50;7.10;;;;;;;5.73;52.01;100596.77;27191;1218;3054596;-65
2021/10/20 06:17:51;;;;;;;17.70;6.90;;;;;;;5.85;51.57;100595.26;27213;1217;3051238;-65
2021/10/20 06:20:20;;;;;;;17.30;6.70;;;;;;;5.95;51.54;100595.22;27235;1217;3025947;-66
2021/10/20 06:22:48;;;;;;;18.00;6.20;;;;;;;6.09;49.99;100591.96;27213;1219;3052108;-71
2021/10/20 06:25:17;;;;;;;16.00;5.70;;;;;;;6.18;50.03;100588.77;27188;1217;3029012;-67
2021/10/20 06:27:47;;;;;;;15.40;6.40;;;;;;;6.30;50.16;100586.74;27197;1219;3046961;-66
2021/10/20 06:30:16;;;;;;;20.80;7.50;;;;;;;6.39;49.33;100589.14;27192;1217;3026068;-67
2021/10/20 06:32:45;;;;;;;16.10;7.30;;;;;;;6.49;48.91;100591.49;27224;1217;3025950;-68
2021/10/20 06:35:14;;;;;;;18.70;7.70;;;;;;;6.59;48.85;100598.55;27176;1217;3050454;-65
2021/10/20 06:37:48;;;;;;;21.00;7.90;;;;;;;6.67;48.91;100598.17;27228;1217;3026502;-68
2021/10/20 06:40:17;;;;;;;24.90;8.00;;;;;;;6.75;48.75;100597.44;27236;1217;3067425;-64
2021/10/20 06:42:46;;;;;;;21.70;8.00;;;;;;;6.88;48.74;100607.19;27201;1209;3026549;-64
2021/10/20 06:45:15;;;;;;;14.40;5.80;;;;;;;6.99;48.00;100612.63;27206;1217;3028010;-63
2021/10/20 06:47:46;;;;;;;14.10;5.60;;;;;;;7.11;46.92;100615.98;27174;1217;3070926;-67
2021/10/20 06:50:17;;;;;;;16.70;6.00;;;;;;;7.24;45.84;100620.28;27224;1217;3026071;-70
2021/10/20 06:52:47;;;;;;;18.20;5.70;;;;;;;7.33;44.64;100616.73;27259;1217;3026682;-69
2021/10/20 06:55:16;;;;;;;8.30;4.20;;;;;;;7.38;42.90;100616.94;27199;1218;3026726;-65
2021/10/20 06:57:45;;;;;;;9.00;3.80;;;;;;;7.45;42.26;100612.92;27199;1217;3027948;-67
2021/10/20 07:00:14;;;;;;;8.70;3.50;;;;;;;7.50;41.50;100610.50;27188;1218;3053850;-68
2021/10/20 07:02:43;;;;;;;9.90;4.00;;;;;;;7.64;42.52;100608.84;27207;1217;3025814;-69
2021/10/20 07:05:12;;;;;;;8.40;3.30;;;;;;;7.75;41.31;100611.12;27188;1218;3048497;-68
2021/10/20 07:07:41;;;;;;;7.10;3.00;;;;;;;7.88;41.22;100611.27;27230;1219;3025974;-64
2021/10/20 07:10:10;;;;;;;8.20;2.90;;;;;;;7.94;40.69;100606.00;27207;1218;3067392;-69
2021/10/20 07:12:40;;;;;;;6.10;3.10;;;;;;;8.04;41.68;100606.39;27212;1218;3026323;-65
2021/10/20 07:15:09;;;;;;;13.00;3.00;;;;;;;8.17;41.34;100601.27;27219;1218;3026083;-62
2021/10/20 07:17:38;;;;;;;11.50;4.90;;;;;;;8.25;41.67;100601.86;27192;1217;3067854;-65
2021/10/20 07:20:09;;;;;;;14.70;4.50;;;;;;;8.25;41.59;100604.67;27231;1217;3026437;-62
2021/10/20 07:22:39;;;;;;;10.80;4.20;;;;;;;8.27;41.60;100599.73;27198;1217;3026015;-65
2021/10/20 07:25:09;;;;;;;12.40;4.30;;;;;;;8.28;41.49;100600.73;27240;1217;3026089;-61
2021/10/20 07:27:38;;;;;;;16.20;3.90;;;;;;;8.29;41.29;100605.75;27258;1217;3028059;-67
2021/10/20 07:30:09;;;;;;;8.80;3.70;;;;;;;8.42;41.84;100612.85;27247;1217;3026383;-70
2021/10/20 07:32:39;;;;;;;8.90;3.70;;;;;;;8.50;41.24;100612.61;27206;1217;3054306;-66
2021/10/20 07:35:09;;;;;;;5.40;3.40;;;;;;;8.62;41.44;100614.14;27234;1217;3026889;-66
2021/10/20 07:37:39;;;;;;;11.50;3.40;;;;;;;8.74;41.27;100613.55;27219;1217;3026014;-66
2021/10/20 07:40:09;;;;;;;6.90;3.10;;;;;;;8.83;41.04;100610.61;27327;1215;3026735;-67
2021/10/20 07:42:39;;;;;;;10.10;3.30;;;;;;;9.03;41.30;100603.41;27303;1215;3026413;-67
2021/10/20 07:45:09;;;;;;;8.30;3.40;;;;;;;9.19;40.02;100599.71;27289;1215;3026702;-63
2021/10/20 07:47:38;;;;;;;7.40;3.80;;;;;;;9.14;39.99;100600.56;27259;1215;3026190;-66
2021/10/20 07:50:07;;;;;;;11.30;3.60;;;;;;;9.07;40.34;100602.95;27284;1215;3026122;-67
2021/10/20 07:52:37;;;;;;;13.30;3.80;;;;;;;9.19;40.03;100607.40;27265;1215;3070267;-67
2021/10/20 07:55:06;;;;;;;9.90;3.50;;;;;;;9.25;39.95;100604.73;27293;1215;3028148;-67
2021/10/20 07:57:36;;;;;;;8.70;4.10;;;;;;;9.33;40.29;100598.86;27260;1215;3050470;-69
2021/10/20 08:00:06;;;;;;;14.80;4.90;;;;;;;9.37;41.24;100600.26;27217;1215;3026612;-66
2021/10/20 08:02:35;;;;;;;9.40;4.60;;;;;;;9.50;41.32;100601.36;27199;1218;3026225;-67
2021/10/20 08:05:06;;;;;;;15.90;4.40;;;;;;;9.65;40.53;100603.56;27241;1215;3026146;-72
2021/10/20 08:07:34;;;;;;;9.20;4.30;;;;;;;9.75;39.71;100597.95;27270;1215;3027090;-65
2021/10/20 08:10:04;;;;;;;14.40;4.90;;;;;;;9.79;39.59;100592.88;27305;1209;3026191;-68
2021/10/20 08:12:39;;;;;;;13.40;4.00;;;;;;;9.90;40.76;100592.11;27234;1210;3054764;-63
2021/10/20 08:15:10;;;;;;;13.90;5.20;;;;;;;9.97;39.79;100593.06;27200;1210;3026702;-67
2021/10/20 08:17:39;;;;;;;9.90;4.80;;;;;;;10.06;39.92;100590.06;27227;1215;3026528;-68
2021/10/20 08:20:09;;;;;;;13.90;4.60;;;;;;;10.19;39.73;100582.37;27219;1216;3026349;-68
2021/10/20 08:22:39;;;;;;;12.60;4.90;;;;;;;10.28;39.22;100579.92;27269;1215;3051556;-69
2021/10/20 08:25:09;;;;;;;12.60;4.70;;;;;;;10.31;39.50;100572.95;27234;1215;3026591;-62
2021/10/20 08:27:38;;;;;;;14.10;4.70;;;;;;;10.34;39.44;100570.73;27202;1216;3051675;-68
2021/10/20 08:30:15;;;;;;;11.60;4.70;;;;;;;10.41;39.11;100567.48;27201;1215;3028255;-68
2021/10/20 08:32:46;;;;;;;13.60;4.50;;;;;;;10.47;38.25;100570.19;27239;1217;3058743;-70
2021/10/20 08:35:16;;;;;;;18.60;5.70;;;;;;;10.36;38.60;100567.66;27195;1209;3026462;-71
2021/10/20 08:37:48;;;;;;;11.90;5.00;;;;;;;10.41;38.30;100565.52;27217;1216;3026251;-65
2021/10/20 08:40:16;;;;;;;18.00;6.10;;;;;;;10.45;38.22;100559.24;27261;1215;3026463;-70
2021/10/20 08:42:45;;;;;;;12.70;6.50;;;;;;;10.57;38.30;100557.86;27218;1215;3028863;-66
2021/10/20 08:45:14;;;;;;;22.80;7.00;;;;;;;10.63;38.11;100556.73;27215;1218;3055008;-67
2021/10/20 08:47:47;;;;;;;18.10;6.90;;;;;;;10.58;37.45;100554.30;27239;1215;3026320;-69
2021/10/20 08:50:23;;;;;;;14.20;6.40;;;;;;;10.59;37.51;100551.83;27263;1216;3048360;-69
2021/10/20 08:52:52;;;;;;;18.40;6.10;;;;;;;10.63;38.38;100551.10;27223;1215;3051750;-67
2021/10/20 08:55:21;;;;;;;14.00;6.30;;;;;;;10.78;38.44;100549.57;27249;1216;3037723;-66
2021/10/20 08:57:51;;;;;;;13.90;6.00;;;;;;;10.95;38.32;100544.64;27223;1215;3051116;-69
2021/10/20 09:00:20;;;;;;;16.30;6.70;;;;;;;11.07;38.20;100545.33;27244;1215;3029633;-70
2021/10/20 09:02:49;;;;;;;17.60;6.40;;;;;;;11.18;37.97;100544.81;27194;1215;3025984;-67
2021/10/20 09:05:20;;;;;;;25.50;7.20;;;;;;;11.28;37.78;100535.92;27229;1215;3026002;-71
2021/10/20 09:07:51;;;;;;;17.80;7.30;;;;;;;11.35;37.03;100533.31;27234;1215;3051663;-67
2021/10/20 09:10:24;;;;;;;20.50;8.00;;;;;;;11.26;37.20;100529.88;27206;1215;3026537;-67
2021/10/20 09:12:56;;;;;;;21.00;9.40;;;;;;;10.92;37.89;100525.66;27190;1216;3070595;-66
2021/10/20 09:15:35;;;;;;;18.80;9.00;;;;;;;11.11;37.94;100523.23;27198;1215;3051401;-65
2021/10/20 09:18:07;;;;;;;20.40;9.10;;;;;;;11.13;37.72;100524.18;27214;1209;3026467;-67
2021/10/20 09:20:46;;;;;;;23.30;8.80;;;;;;;10.91;38.21;100524.47;27209;1215;3026020;-71
2021/10/20 09:23:21;;;;;;;18.80;8.10;;;;;;;11.09;37.93;100527.52;27260;1215;3056427;-67
2021/10/20 09:25:57;;;;;;;19.70;8.40;;;;;;;11.18;37.62;100529.56;27229;1215;3051358;-69
2021/10/20 09:28:28;;;;;;;16.50;6.60;;;;;;;11.10;37.21;100530.46;27264;1217;3025705;-70
2021/10/20 09:31:01;;;;;;;18.30;6.60;;;;;;;11.12;37.33;100534.05;27230;1215;3028167;-69
2021/10/20 09:33:38;;;;;;;24.90;8.20;;;;;;;11.04;36.82;100521.44;27219;1215;3026792;-69
2021/10/20 09:36:13;;;;;;;15.90;6.50;;;;;;;11.03;37.32;100525.86;27236;1215;3049060;-70
2021/10/20 09:38:48;;;;;;;19.60;6.70;;;;;;;11.06;37.20;100519.92;27239;1215;3052483;-69
2021/10/20 09:41:18;;;;;;;16.70;6.30;;;;;;;10.94;37.45;100518.21;27275;1215;3052325;-69
2021/10/20 09:43:54;;;;;;;13.90;5.50;;;;;;;11.03;37.35;100516.76;27255;1215;3026419;-66
2021/10/20 09:46:37;;;;;;;14.30;6.10;;;;;;;10.99;37.24;100515.88;27303;1215;3053400;-70
2021/10/20 09:49:16;;;;;;;16.70;6.80;;;;;;;10.64;37.73;100515.00;27183;1215;3053483;-64
2021/10/20 09:51:47;;;;;;;19.00;6.40;;;;;;;10.79;37.49;100513.81;27266;1216;3056894;-67
2021/10/20 09:54:25;;;;;;;13.40;5.90;;;;;;;10.74;37.28;100518.91;27279;1215;3027987;-70
2021/10/20 09:56:59;;;;;;;18.80;6.90;;;;;;;10.89;37.20;100515.98;27244;1215;3055618;-65
2021/10/20 09:59:29;;;;;;;16.40;6.10;;;;;;;11.08;36.78;100515.27;27286;1215;3052501;-71
2021/10/20 10:01:58;;;;;;;14.40;5.90;;;;;;;11.18;36.53;100517.80;27180;1215;3026487;-65
2021/10/20 10:04:29;;;;;;;8.80;4.10;;;;;;;11.20;36.40;100513.89;27225;1209;3026117;-70
2021/10/20 10:06:58;;;;;;;8.60;4.20;;;;;;;11.19;36.45;100515.83;27343;1216;3026776;-67
2021/10/20 10:09:28;;;;;;;9.30;3.80;;;;;;;11.08;36.90;100514.05;27277;1208;3025962;-66
2021/10/20 10:12:04;;;;;;;9.20;4.00;;;;;;;11.11;36.97;100506.56;27209;1216;3051313;-67
2021/10/20 10:14:55;;;;;;;7.70;3.90;;;;;;;11.15;36.98;100499.36;27174;1216;3054078;-69
2021/10/20 10:17:24;;;;;;;12.80;3.80;;;;;;;11.21;37.07;100496.30;27290;1215;3052808;-64
2021/10/20 10:19:53;;;;;;;9.10;3.10;;;;;;;11.52;36.57;100496.19;27276;1215;3025933;-68
2021/10/20 10:22:26;;;;;;;9.10;3.20;;;;;;;11.66;36.31;100499.59;27258;1215;3026024;-70
2021/10/20 10:25:00;;;;;;;;;;;;;;;11.69;35.56;100498.75;27222;1215;3054017;-65
2021/10/20 10:27:29;;;;;;;5.30;2.70;;;;;;;11.90;35.43;100494.39;27219;1215;3026819;-68
2021/10/20 10:30:15;;;;;;;5.50;2.20;;;;;;;11.88;35.05;100490.79;27259;1215;3025891;-74
2021/10/20 10:32:53;;;;;;;5.30;2.60;;;;;;;11.74;35.22;100486.73;27215;1216;3053555;-70
2021/10/20 10:35:25;;;;;;;5.70;2.50;;;;;;;11.67;34.71;100482.84;27276;1215;3056370;-68
2021/10/20 10:38:04;;;;;;;5.70;2.30;;;;;;;11.68;34.56;100479.82;27234;1215;3027928;-74
2021/10/20 10:40:35;;;;;;;8.90;2.80;;;;;;;11.91;34.44;100471.16;27248;1216;3052261;-69
2021/10/20 10:43:06;;;;;;;5.40;2.30;;;;;;;11.86;34.65;100466.64;27208;1215;3026305;-69
2021/10/20 10:45:35;;;;;;;3.90;2.10;;;;;;;11.86;34.23;100465.58;27302;1215;3026164;-69
2021/10/20 10:48:08;;;;;;;6.50;2.80;;;;;;;11.96;34.56;100466.02;27233;1215;3026253;-70
2021/10/20 10:50:38;;;;;;;7.20;2.60;;;;;;;11.99;34.67;100455.84;27247;1215;3049978;-66
2021/10/20 10:53:07;;;;;;;6.50;2.90;;;;;;;12.02;34.71;100452.01;27276;1210;3026226;-69
2021/10/20 10:55:36;;;;;;;10.50;3.00;;;;;;;12.17;34.40;100451.05;27247;1208;3025912;-68
2021/10/20 10:58:16;;;;;;;5.10;2.90;;;;;;;12.03;34.04;100447.57;27265;1215;3025999;-68
2021/10/20 11:01:04;;;;;;;6.10;3.00;;;;;;;12.09;33.22;100448.70;27297;1215;3051828;-69
2021/10/20 11:03:35;;;;;;;4.10;2.40;;;;;;;12.20;33.07;100443.02;27280;1215;3025769;-67
2021/10/20 11:06:04;;;;;;;6.10;2.50;;;;;;;12.20;33.26;100445.84;27239;1208;3025782;-67
2021/10/20 11:08:33;;;;;;;9.00;2.90;;;;;;;12.29;33.70;100444.64;27265;1215;3053998;-66
2021/10/20 11:11:04;;;;;;;5.70;1.80;;;;;;;12.16;33.41;100440.95;27318;1215;3026593;-66
2021/10/20 11:13:33;;;;;;;3.90;2.10;;;;;;;12.14;33.05;100440.55;27279;1215;3053576;-71
2021/10/20 11:16:02;;;;;;;8.30;2.30;;;;;;;12.08;31.96;100435.39;27285;1216;3028036;-66
2021/10/20 11:18:59;;;;;;;4.80;2.00;;;;;;;12.20;31.62;100435.80;27236;1218;3051266;-67
2021/10/20 11:21:28;;;;;;;4.80;1.80;;;;;;;12.25;31.08;100433.98;27256;1215;3054530;-71